Von / Nach
Hinflug - Rückflug
Erwachsene / Kinder
Promocode
Nächste Ankünfte Flughafen St.Gallen-Altenrhein

ZeitErw.vonFlugInfo
12:0011:50MenorcaPE505
gelandet
14:3514:35OlbiaPE525
gelandet
14:3514:35CagliariPE525
gelandet
18:5018:50PulaPE511
planmässig
Nächste Abflüge Flughafen St.Gallen-Altenrhein

ZeitGeplantnachFlugInfo
07:3007:30MenorcaPE504
abgeflogen
09:0009:00OlbiaPE524
abgeflogen
09:0009:00CagliariPE524
abgeflogen
16:1016:10PulaPE510
verspätet
Nächste Information erhalten Sie am Flughafen um 17:00 Uhr
19:3019:30WienPE112
planmässig

Flugplan

Bitte wählen Sie Ihren gewünschten Abflug- und Zielflughafen aus.


Live aus Altenrhein
LIVE
LSZR 241420Z 32004KT 280V020 9999 FEW020 22/18 Q1021 NOSIG RMK I
Zeitraffer heute
2019-08-24 00:14:28
LSZR 232150Z AUTO 20001KT CAVOK 16/16 Q1022
Zeitraffer gestern
2019-08-23 00:14:48
LSZR 222150Z AUTO 14004KT 9999 OVC030 18/15 Q1026

Wien

Samstags-Special: Altenrhein-Wien für EUR 89.-.

 

Jetzt buchen

Menorca

Ab EUR 299.- hin & zurück.

 

Jetzt buchen

Kalabrien

Ab EUR 329.- hin & zurück.

 

Jetzt buchen

Ibiza

Ab EUR 279.- hin & zurück.

 

Jetzt buchen

Mallorca

Ab EUR 349.- hin & zurück.

 

Jetzt buchen

General Aviation

Business & General Aviation LSZR.

 

More information

Klimaneutrales Fliegen
Fliegen Sie mit People's CO2 klimaneutral !

 

 Shuttlebus


Nutzen Sie unseren

Shuttlebus zwischen Altenrhein

und Dornbirn & Bregenz.

 

Mehr dazu

 

People's Online-Shop


Von der Überraschung an

Bord über Badetücher bis

zum Flugzeugmodell.

 

Mehr dazu


News


Aktuelles von People's

und dem Flughafen

St.Gallen-Altenrhein.

 

Mehr dazu

 

Ad-hoc Charter


Chartern Sie eine unserer

Embraer170 für Ihren eigenen

Anlass oder ACMI-Einsätze.


Mehr dazu

  

 

Teile dein People's-Erlebnis mit uns:

 

#peoplesairline bei Instagram